sensor_id;sensor_type;location;lat;lon;timestamp;pressure;altitude;pressure_sealevel;temperature;humidity
54172;BME280;40076;52.354;4.970;2024-02-23T04:23:21;98812.66;;;6.12;100.00
54172;BME280;40076;52.354;4.970;2024-02-23T04:26:06;98821.03;;;6.10;100.00
54172;BME280;40076;52.354;4.970;2024-02-23T04:35:58;98821.50;;;6.00;100.00
54172;BME280;40076;52.354;4.970;2024-02-23T04:38:42;98829.88;;;5.99;100.00
54172;BME280;40076;52.354;4.970;2024-02-23T04:41:13;98836.03;;;5.99;100.00
54172;BME280;40076;52.354;4.970;2024-02-23T04:43:41;98843.72;;;6.01;100.00
54172;BME280;40076;52.354;4.970;2024-02-23T04:46:09;98831.31;;;5.96;100.00
54172;BME280;40076;52.354;4.970;2024-02-23T04:48:45;98846.75;;;5.99;100.00
54172;BME280;40076;52.354;4.970;2024-02-23T04:51:12;98841.72;;;5.98;100.00
54172;BME280;40076;52.354;4.970;2024-02-23T04:53:38;98839.81;;;5.98;100.00
54172;BME280;40076;52.354;4.970;2024-02-23T04:56:04;98838.94;;;5.94;100.00
54172;BME280;40076;52.354;4.970;2024-02-23T04:58:30;98854.56;;;5.92;100.00
54172;BME280;40076;52.354;4.970;2024-02-23T05:00:56;98846.84;;;5.91;100.00
54172;BME280;40076;52.354;4.970;2024-02-23T05:03:21;98852.53;;;5.89;100.00
54172;BME280;40076;52.354;4.970;2024-02-23T05:05:46;98850.97;;;5.88;100.00
54172;BME280;40076;52.354;4.970;2024-02-23T05:08:12;98847.84;;;5.86;100.00
54172;BME280;40076;52.354;4.970;2024-02-23T05:10:37;98849.75;;;5.86;100.00
54172;BME280;40076;52.354;4.970;2024-02-23T05:13:03;98842.03;;;5.84;100.00
54172;BME280;40076;52.354;4.970;2024-02-23T05:15:28;98844.38;;;5.86;100.00
54172;BME280;40076;52.354;4.970;2024-02-23T05:17:53;98845.16;;;5.86;100.00
54172;BME280;40076;52.354;4.970;2024-02-23T05:20:19;98845.16;;;5.86;100.00
54172;BME280;40076;52.354;4.970;2024-02-23T05:22:44;98844.72;;;5.84;100.00
54172;BME280;40076;52.354;4.970;2024-02-23T05:25:12;98852.75;;;5.84;100.00
54172;BME280;40076;52.354;4.970;2024-02-23T05:27:37;98844.38;;;5.86;100.00
54172;BME280;40076;52.354;4.970;2024-02-23T05:30:08;98850.97;;;5.88;100.00
54172;BME280;40076;52.354;4.970;2024-02-23T05:32:36;98840.59;;;5.87;100.00
54172;BME280;40076;52.354;4.970;2024-02-23T05:35:04;98841.50;;;5.91;100.00
54172;BME280;40076;52.354;4.970;2024-02-23T05:37:29;98840.72;;;5.90;100.00
54172;BME280;40076;52.354;4.970;2024-02-23T05:39:55;98846.41;;;5.89;100.00
54172;BME280;40076;52.354;4.970;2024-02-23T05:42:20;98846.84;;;5.91;100.00
54172;BME280;40076;52.354;4.970;2024-02-23T05:44:48;98838.38;;;5.89;100.00
54172;BME280;40076;52.354;4.970;2024-02-23T05:47:14;98830.66;;;5.87;100.00
54172;BME280;40076;52.354;4.970;2024-02-23T05:49:39;98833.00;;;5.89;100.00
54172;BME280;40076;52.354;4.970;2024-02-23T05:52:07;98828.44;;;5.89;100.00
54172;BME280;40076;52.354;4.970;2024-02-23T05:54:32;98833.78;;;5.89;100.00
54172;BME280;40076;52.354;4.970;2024-02-23T05:56:58;98833.78;;;5.89;100.00
54172;BME280;40076;52.354;4.970;2024-02-23T05:59:23;98835.22;;;5.87;100.00
54172;BME280;40076;52.354;4.970;2024-02-23T06:18:08;98825.88;;;5.93;100.00
54172;BME280;40076;52.354;4.970;2024-02-23T06:20:39;98828.44;;;5.89;100.00
54172;BME280;40076;52.354;4.970;2024-02-23T06:23:05;98832.34;;;5.92;100.00
54172;BME280;40076;52.354;4.970;2024-02-23T06:25:30;98835.47;;;5.94;100.00
54172;BME280;40076;52.354;4.970;2024-02-23T06:27:59;98835.13;;;5.95;100.00
54172;BME280;40076;52.354;4.970;2024-02-23T06:30:27;98843.63;;;5.97;100.00
54172;BME280;40076;52.354;4.970;2024-02-23T06:32:52;98839.81;;;5.98;100.00
54172;BME280;40076;52.354;4.970;2024-02-23T06:35:25;98852.09;;;5.99;100.00
54172;BME280;40076;52.354;4.970;2024-02-23T06:37:50;98851.00;;;6.00;100.00
54172;BME280;40076;52.354;4.970;2024-02-23T06:40:16;98849.88;;;6.01;100.00
54172;BME280;40076;52.354;4.970;2024-02-23T06:42:41;98847.63;;;6.03;100.00
54172;BME280;40076;52.354;4.970;2024-02-23T06:45:07;98854.88;;;6.03;100.00
54172;BME280;40076;52.354;4.970;2024-02-23T06:47:33;98850.31;;;6.03;100.00
54172;BME280;40076;52.354;4.970;2024-02-23T06:49:59;98854.88;;;6.03;100.00
54172;BME280;40076;52.354;4.970;2024-02-23T06:52:36;98846.41;;;6.01;100.00
54172;BME280;40076;52.354;4.970;2024-02-23T06:55:02;98847.19;;;6.01;100.00
54172;BME280;40076;52.354;4.970;2024-02-23T06:57:30;98853.34;;;6.02;100.00
54172;BME280;40076;52.354;4.970;2024-02-23T07:00:00;98859.03;;;6.00;100.00
54172;BME280;40076;52.354;4.970;2024-02-23T07:02:28;98862.50;;;6.01;100.00
54172;BME280;40076;52.354;4.970;2024-02-23T07:04:57;98859.13;;;6.04;100.00
54172;BME280;40076;52.354;4.970;2024-02-23T07:07:23;98861.47;;;6.05;100.00
54172;BME280;40076;52.354;4.970;2024-02-23T07:09:51;98852.97;;;6.03;100.00
54172;BME280;40076;52.354;4.970;2024-02-23T07:12:20;98866.06;;;6.05;100.00
54172;BME280;40076;52.354;4.970;2024-02-23T07:14:48;98863.03;;;6.06;100.00
54172;BME280;40076;52.354;4.970;2024-02-23T07:17:21;98867.97;;;6.04;100.00
54172;BME280;40076;52.354;4.970;2024-02-23T07:19:54;98863.38;;;6.05;100.00
54172;BME280;40076;52.354;4.970;2024-02-23T07:22:21;98852.56;;;6.01;100.00
54172;BME280;40076;52.354;4.970;2024-02-23T07:24:46;98851.09;;;6.04;100.00
54172;BME280;40076;52.354;4.970;2024-02-23T07:27:12;98855.66;;;6.03;100.00
54172;BME280;40076;52.354;4.970;2024-02-23T07:29:40;98844.16;;;6.03;100.00
54172;BME280;40076;52.354;4.970;2024-02-23T07:32:08;98847.97;;;6.02;100.00
54172;BME280;40076;52.354;4.970;2024-02-23T07:34:33;98838.47;;;6.04;100.00
54172;BME280;40076;52.354;4.970;2024-02-23T07:36:59;98840.72;;;6.02;100.00
54172;BME280;40076;52.354;4.970;2024-02-23T07:39:24;98838.47;;;6.04;100.00
54172;BME280;40076;52.354;4.970;2024-02-23T07:41:50;98832.00;;;6.05;100.00
54172;BME280;40076;52.354;4.970;2024-02-23T07:44:15;98834.66;;;6.05;100.00
54172;BME280;40076;52.354;4.970;2024-02-23T07:46:48;98828.19;;;6.06;100.00
54172;BME280;40076;52.354;4.970;2024-02-23T07:49:13;98816.69;;;6.06;100.00
54172;BME280;40076;52.354;4.970;2024-02-23T07:51:39;98822.84;;;6.06;100.00
54172;BME280;40076;52.354;4.970;2024-02-23T07:54:06;98827.53;;;6.09;100.00
54172;BME280;40076;52.354;4.970;2024-02-23T07:56:32;98827.06;;;6.07;100.00
54172;BME280;40076;52.354;4.970;2024-02-23T07:59:00;98822.84;;;6.06;100.00
54172;BME280;40076;52.354;4.970;2024-02-23T08:01:28;98817.47;;;6.06;100.00
54172;BME280;40076;52.354;4.970;2024-02-23T08:03:53;98819.03;;;6.07;100.00
54172;BME280;40076;52.354;4.970;2024-02-23T08:06:19;98818.25;;;6.07;100.00
54172;BME280;40076;52.354;4.970;2024-02-23T08:08:45;98807.53;;;6.07;100.00
54172;BME280;40076;52.354;4.970;2024-02-23T08:11:14;98809.88;;;6.08;100.00
54172;BME280;40076;52.354;4.970;2024-02-23T08:13:42;98814.13;;;6.09;100.00
54172;BME280;40076;52.354;4.970;2024-02-23T08:16:07;98811.78;;;6.08;100.00
54172;BME280;40076;52.354;4.970;2024-02-23T08:18:35;98809.88;;;6.08;100.00
54172;BME280;40076;52.354;4.970;2024-02-23T08:21:01;98825.19;;;6.08;100.00
54172;BME280;40076;52.354;4.970;2024-02-23T08:23:29;98804.31;;;6.01;100.00
54172;BME280;40076;52.354;4.970;2024-02-23T08:25:55;98812.56;;;5.96;100.00
54172;BME280;40076;52.354;4.970;2024-02-23T08:28:23;98819.72;;;5.92;100.00
54172;BME280;40076;52.354;4.970;2024-02-23T08:30:49;98826.72;;;5.85;100.00
54172;BME280;40076;52.354;4.970;2024-02-23T08:33:17;98820.59;;;5.84;100.00
54172;BME280;40076;52.354;4.970;2024-02-23T08:35:42;98812.78;;;5.79;100.00
54172;BME280;40076;52.354;4.970;2024-02-23T08:38:08;98814.69;;;5.78;100.00
54172;BME280;40076;52.354;4.970;2024-02-23T08:40:34;98812.31;;;5.77;100.00
54172;BME280;40076;52.354;4.970;2024-02-23T08:43:00;98807.75;;;5.77;100.00
54172;BME280;40076;52.354;4.970;2024-02-23T08:45:25;98804.94;;;5.74;100.00
54172;BME280;40076;52.354;4.970;2024-02-23T08:47:50;98801.94;;;5.75;100.00
54172;BME280;40076;52.354;4.970;2024-02-23T08:50:16;98793.91;;;5.75;100.00
54172;BME280;40076;52.354;4.970;2024-02-23T08:52:41;98798.16;;;5.76;100.00
54172;BME280;40076;52.354;4.970;2024-02-23T08:55:07;98805.41;;;5.76;100.00
54172;BME280;40076;52.354;4.970;2024-02-23T08:57:33;98792.78;;;5.76;100.00
54172;BME280;40076;52.354;4.970;2024-02-23T09:00:01;98795.47;;;5.76;100.00
54172;BME280;40076;52.354;4.970;2024-02-23T09:02:26;98803.84;;;5.75;100.00
54172;BME280;40076;52.354;4.970;2024-02-23T09:04:51;98790.09;;;5.76;100.00
54172;BME280;40076;52.354;4.970;2024-02-23T09:07:17;98801.94;;;5.75;100.00
54172;BME280;40076;52.354;4.970;2024-02-23T09:09:45;98784.75;;;5.76;100.00
54172;BME280;40076;52.354;4.970;2024-02-23T09:12:11;98790.56;;;5.78;100.00
54172;BME280;40076;52.354;4.970;2024-02-23T09:14:36;98795.91;;;5.78;100.00
54172;BME280;40076;52.354;4.970;2024-02-23T09:17:04;98811.31;;;5.81;100.00
54172;BME280;40076;52.354;4.970;2024-02-23T09:19:29;98806.72;;;5.82;100.00
54172;BME280;40076;52.354;4.970;2024-02-23T09:21:55;98802.16;;;5.82;100.00
54172;BME280;40076;52.354;4.970;2024-02-23T09:24:21;98808.63;;;5.81;100.00
54172;BME280;40076;52.354;4.970;2024-02-23T09:26:47;98799.03;;;5.80;100.00
54172;BME280;40076;52.354;4.970;2024-02-23T09:29:15;98801.28;;;5.78;100.00
54172;BME280;40076;52.354;4.970;2024-02-23T09:31:40;98801.28;;;5.78;100.00
54172;BME280;40076;52.354;4.970;2024-02-23T09:34:06;98794.44;;;5.81;100.00
54172;BME280;40076;52.354;4.970;2024-02-23T09:36:31;98793.34;;;5.82;100.00
54172;BME280;40076;52.354;4.970;2024-02-23T09:38:59;98807.50;;;5.82;100.00
54172;BME280;40076;52.354;4.970;2024-02-23T09:41:27;98806.53;;;5.87;100.00
54172;BME280;40076;52.354;4.970;2024-02-23T09:43:55;98807.31;;;5.88;100.00
54172;BME280;40076;52.354;4.970;2024-02-23T09:46:28;98810.44;;;5.90;100.00
54172;BME280;40076;52.354;4.970;2024-02-23T09:48:55;98811.69;;;5.92;100.00
54172;BME280;40076;52.354;4.970;2024-02-23T09:51:22;98823.28;;;5.96;100.00
54172;BME280;40076;52.354;4.970;2024-02-23T09:53:49;98823.28;;;5.96;100.00
54172;BME280;40076;52.354;4.970;2024-02-23T09:56:15;98824.97;;;6.01;100.00
54172;BME280;40076;52.354;4.970;2024-02-23T09:58:43;98825.84;;;6.05;100.00
54172;BME280;40076;52.354;4.970;2024-02-23T10:01:51;98822.03;;;6.06;100.00
54172;BME280;40076;52.354;4.970;2024-02-23T10:04:18;98830.53;;;6.08;100.00
54172;BME280;40076;52.354;4.970;2024-02-23T10:06:44;98827.16;;;6.11;100.00
54172;BME280;40076;52.354;4.970;2024-02-23T10:09:12;98841.34;;;6.11;100.00
54172;BME280;40076;52.354;4.970;2024-02-23T10:11:38;98836.91;;;6.15;100.00
54172;BME280;40076;52.354;4.970;2024-02-23T10:14:03;98827.06;;;6.19;100.00
54172;BME280;40076;52.354;4.970;2024-02-23T10:16:28;98833.97;;;6.20;100.00
54172;BME280;40076;52.354;4.970;2024-02-23T10:18:54;98836.41;;;6.26;100.00
54172;BME280;40076;52.354;4.970;2024-02-23T10:21:19;98834.63;;;6.30;100.00
54172;BME280;40076;52.354;4.970;2024-02-23T10:23:45;98834.72;;;6.33;100.00
54172;BME280;40076;52.354;4.970;2024-02-23T10:26:11;98846.03;;;6.39;100.00
54172;BME280;40076;52.354;4.970;2024-02-23T10:28:37;98853.38;;;6.42;100.00
54172;BME280;40076;52.354;4.970;2024-02-23T10:31:06;98841.53;;;6.43;100.00
54172;BME280;40076;52.354;4.970;2024-02-23T10:33:32;98845.13;;;6.47;100.00
54172;BME280;40076;52.354;4.970;2024-02-23T10:36:04;98868.22;;;6.51;100.00
54172;BME280;40076;52.354;4.970;2024-02-23T10:38:32;98858.72;;;6.54;100.00
54172;BME280;40076;52.354;4.970;2024-02-23T10:40:58;98864.19;;;6.57;100.00
54172;BME280;40076;52.354;4.970;2024-02-23T10:43:44;98858.94;;;6.61;100.00
54172;BME280;40076;52.354;4.970;2024-02-23T10:46:14;98877.81;;;6.65;100.00
54172;BME280;40076;52.354;4.970;2024-02-23T10:48:46;98877.47;;;6.66;100.00
54172;BME280;40076;52.354;4.970;2024-02-23T10:51:36;98871.09;;;6.71;100.00
54172;BME280;40076;52.354;4.970;2024-02-23T10:54:06;98871.63;;;6.76;100.00
54172;BME280;40076;52.354;4.970;2024-02-23T10:56:31;98873.19;;;6.77;100.00
54172;BME280;40076;52.354;4.970;2024-02-23T10:58:57;98872.16;;;6.82;100.00
54172;BME280;40076;52.354;4.970;2024-02-23T11:01:24;98869.59;;;6.85;100.00
54172;BME280;40076;52.354;4.970;2024-02-23T11:04:06;98870.47;;;6.89;100.00
54172;BME280;40076;52.354;4.970;2024-02-23T11:06:33;98884.00;;;6.93;100.00
54172;BME280;40076;52.354;4.970;2024-02-23T11:09:06;98876.03;;;6.96;100.00
54172;BME280;40076;52.354;4.970;2024-02-23T11:11:35;98881.50;;;7.00;100.00
54172;BME280;40076;52.354;4.970;2024-02-23T11:14:02;98888.19;;;7.06;100.00
54172;BME280;40076;52.354;4.970;2024-02-23T11:16:31;98888.72;;;7.12;100.00
54172;BME280;40076;52.354;4.970;2024-02-23T11:19:05;98894.28;;;7.19;100.00
54172;BME280;40076;52.354;4.970;2024-02-23T11:21:53;98895.19;;;7.23;100.00
54172;BME280;40076;52.354;4.970;2024-02-23T11:24:41;98890.66;;;7.27;100.00
54172;BME280;40076;52.354;4.970;2024-02-23T11:27:14;98890.31;;;7.28;100.00
54172;BME280;40076;52.354;4.970;2024-02-23T11:29:45;98898.50;;;7.32;100.00
54172;BME280;40076;52.354;4.970;2024-02-23T11:32:13;98898.91;;;7.34;100.00
54172;BME280;40076;52.354;4.970;2024-02-23T11:34:39;98895.88;;;7.35;100.00
54172;BME280;40076;52.354;4.970;2024-02-23T11:37:09;98896.34;;;7.38;100.00
54172;BME280;40076;52.354;4.970;2024-02-23T11:39:50;98908.97;;;7.37;100.00
54172;BME280;40076;52.354;4.970;2024-02-23T11:42:19;98907.94;;;7.42;100.00
54172;BME280;40076;52.354;4.970;2024-02-23T11:44:50;98924.06;;;7.42;100.00
54172;BME280;40076;52.354;4.970;2024-02-23T11:47:24;98920.69;;;7.45;100.00
54172;BME280;40076;52.354;4.970;2024-02-23T11:49:52;98930.41;;;7.49;100.00
54172;BME280;40076;52.354;4.970;2024-02-23T11:52:21;98930.50;;;7.53;100.00
54172;BME280;40076;52.354;4.970;2024-02-23T11:54:49;98917.53;;;7.55;100.00
54172;BME280;40076;52.354;4.970;2024-02-23T11:57:18;98932.50;;;7.56;100.00
54172;BME280;40076;52.354;4.970;2024-02-23T11:59:46;98936.84;;;7.60;100.00
54172;BME280;40076;52.354;4.970;2024-02-23T12:02:12;98932.34;;;7.64;100.00
54172;BME280;40076;52.354;4.970;2024-02-23T12:04:38;98931.22;;;7.65;100.00
54172;BME280;40076;52.354;4.970;2024-02-23T12:07:04;98942.41;;;7.67;100.00
54172;BME280;40076;52.354;4.970;2024-02-23T12:09:29;98937.81;;;7.68;100.00
54172;BME280;40076;52.354;4.970;2024-02-23T12:11:57;98951.00;;;7.73;100.00
54172;BME280;40076;52.354;4.970;2024-02-23T12:14:23;98939.13;;;7.74;100.00
54172;BME280;40076;52.354;4.970;2024-02-23T12:16:48;98942.59;;;7.74;100.00
54172;BME280;40076;52.354;4.970;2024-02-23T12:19:15;98943.03;;;7.77;100.00
54172;BME280;40076;52.354;4.970;2024-02-23T12:21:40;98935.03;;;7.80;100.00
54172;BME280;40076;52.354;4.970;2024-02-23T12:24:08;98941.19;;;7.81;100.00
54172;BME280;40076;52.354;4.970;2024-02-23T12:26:41;98938.19;;;7.82;100.00
54172;BME280;40076;52.354;4.970;2024-02-23T12:29:14;98941.72;;;7.86;100.00
54172;BME280;40076;52.354;4.970;2024-02-23T12:31:39;98945.19;;;7.87;100.00
54172;BME280;40076;52.354;4.970;2024-02-23T12:34:05;98954.16;;;7.91;100.00
54172;BME280;40076;52.354;4.970;2024-02-23T12:36:34;98936.44;;;7.90;100.00
54172;BME280;40076;52.354;4.970;2024-02-23T12:39:02;98953.81;;;7.92;100.00
54172;BME280;40076;52.354;4.970;2024-02-23T12:41:27;98956.56;;;7.96;100.00
54172;BME280;40076;52.354;4.970;2024-02-23T12:43:55;98959.69;;;7.98;100.00
54172;BME280;40076;52.354;4.970;2024-02-23T12:46:23;98940.19;;;8.01;100.00
54172;BME280;40076;52.354;4.970;2024-02-23T12:48:54;98956.75;;;8.03;100.00
54172;BME280;40076;52.354;4.970;2024-02-23T12:51:25;98952.84;;;8.00;100.00
54172;BME280;40076;52.354;4.970;2024-02-23T12:53:50;98967.09;;;8.01;100.00
54172;BME280;40076;52.354;4.970;2024-02-23T12:56:16;98961.44;;;8.06;100.00
54172;BME280;40076;52.354;4.970;2024-02-23T12:59:06;98964.91;;;8.06;100.00
54172;BME280;40076;52.354;4.970;2024-02-23T13:01:57;98968.78;;;8.09;100.00
54172;BME280;40076;52.354;4.970;2024-02-23T13:04:32;98983.47;;;8.11;100.00
54172;BME280;40076;52.354;4.970;2024-02-23T13:10:26;98970.91;;;8.16;100.00
54172;BME280;40076;52.354;4.970;2024-02-23T13:16:42;98984.88;;;8.21;100.00
54172;BME280;40076;52.354;4.970;2024-02-23T13:19:28;98989.53;;;8.24;100.00
54172;BME280;40076;52.354;4.970;2024-02-23T13:22:03;98990.31;;;8.25;100.00
54172;BME280;40076;52.354;4.970;2024-02-23T13:24:47;98983.47;;;8.27;100.00
54172;BME280;40076;52.354;4.970;2024-02-23T13:27:13;98992.00;;;8.29;100.00
54172;BME280;40076;52.354;4.970;2024-02-23T13:29:44;98986.72;;;8.33;100.00
54172;BME280;40076;52.354;4.970;2024-02-23T13:32:12;98986.81;;;8.36;100.00
54172;BME280;40076;52.354;4.970;2024-02-23T13:34:38;98981.41;;;8.36;100.00
54172;BME280;40076;52.354;4.970;2024-02-23T13:37:06;98988.78;;;8.39;100.00
54172;BME280;40076;52.354;4.970;2024-02-23T13:42:49;98987.75;;;8.44;100.00
54172;BME280;40076;52.354;4.970;2024-02-23T13:45:20;98998.19;;;8.45;100.00
54172;BME280;40076;52.354;4.970;2024-02-23T13:48:00;98997.06;;;8.46;100.00
54172;BME280;40076;52.354;4.970;2024-02-23T13:50:29;98998.25;;;8.49;100.00
54172;BME280;40076;52.354;4.970;2024-02-23T13:52:58;99007.97;;;8.54;100.00
54172;BME280;40076;52.354;4.970;2024-02-23T13:55:23;98998.00;;;8.54;100.00
54172;BME280;40076;52.354;4.970;2024-02-23T13:57:49;99003.00;;;8.56;100.00
54172;BME280;40076;52.354;4.970;2024-02-23T14:00:16;99002.31;;;8.59;100.00
54172;BME280;40076;52.354;4.970;2024-02-23T14:02:42;99007.72;;;8.59;100.00
54172;BME280;40076;52.354;4.970;2024-02-23T14:05:07;99008.50;;;8.59;100.00
54172;BME280;40076;52.354;4.970;2024-02-23T14:07:34;98998.84;;;8.58;100.00
54172;BME280;40076;52.354;4.970;2024-02-23T14:09:59;99007.38;;;8.60;100.00
54172;BME280;40076;52.354;4.970;2024-02-23T14:12:24;99005.47;;;8.61;100.00
54172;BME280;40076;52.354;4.970;2024-02-23T14:14:50;99006.25;;;8.61;100.00
54172;BME280;40076;52.354;4.970;2024-02-23T14:17:15;99002.38;;;8.62;100.00
54172;BME280;40076;52.354;4.970;2024-02-23T14:19:48;99005.09;;;8.62;100.00
54172;BME280;40076;52.354;4.970;2024-02-23T14:22:16;99013.53;;;8.61;100.00
54172;BME280;40076;52.354;4.970;2024-02-23T14:24:41;99020.81;;;8.60;100.00
54172;BME280;40076;52.354;4.970;2024-02-23T14:27:07;99013.53;;;8.61;100.00
54172;BME280;40076;52.354;4.970;2024-02-23T14:29:32;99018.13;;;8.60;100.00
54172;BME280;40076;52.354;4.970;2024-02-23T14:31:59;99013.09;;;8.59;100.00
54172;BME280;40076;52.354;4.970;2024-02-23T14:34:25;99025.09;;;8.61;100.00
54172;BME280;40076;52.354;4.970;2024-02-23T14:36:50;99018.53;;;8.62;100.00
54172;BME280;40076;52.354;4.970;2024-02-23T14:39:15;99021.22;;;8.62;100.00
54172;BME280;40076;52.354;4.970;2024-02-23T14:41:43;99027.41;;;8.63;100.00
54172;BME280;40076;52.354;4.970;2024-02-23T14:44:09;99020.09;;;8.63;100.00
54172;BME280;40076;52.354;4.970;2024-02-23T14:46:37;99024.38;;;8.64;100.00
54172;BME280;40076;52.354;4.970;2024-02-23T14:49:06;99026.28;;;8.64;100.00
54172;BME280;40076;52.354;4.970;2024-02-23T14:51:32;99036.38;;;8.67;100.00
54172;BME280;40076;52.354;4.970;2024-02-23T14:53:57;99033.66;;;8.67;100.00
54172;BME280;40076;52.354;4.970;2024-02-23T14:56:23;99040.19;;;8.66;100.00
54172;BME280;40076;52.354;4.970;2024-02-23T14:58:48;99050.16;;;8.65;100.00
54172;BME280;40076;52.354;4.970;2024-02-23T15:01:13;99047.81;;;8.64;100.00
54172;BME280;40076;52.354;4.970;2024-02-23T15:03:39;99048.94;;;8.63;100.00
54172;BME280;40076;52.354;4.970;2024-02-23T15:06:05;99057.03;;;8.63;100.00
54172;BME280;40076;52.354;4.970;2024-02-23T15:08:30;99058.19;;;8.62;100.00
54172;BME280;40076;52.354;4.970;2024-02-23T15:10:56;99060.09;;;8.61;100.00
54172;BME280;40076;52.354;4.970;2024-02-23T15:13:21;99059.31;;;8.61;100.00
54172;BME280;40076;52.354;4.970;2024-02-23T15:15:46;99065.03;;;8.59;100.00
54172;BME280;40076;52.354;4.970;2024-02-23T15:18:19;99077.72;;;8.59;100.00
54172;BME280;40076;52.354;4.970;2024-02-23T15:20:44;99075.00;;;8.59;100.00
54172;BME280;40076;52.354;4.970;2024-02-23T15:23:11;99076.13;;;8.58;100.00
54172;BME280;40076;52.354;4.970;2024-02-23T15:25:36;99079.16;;;8.56;100.00
54172;BME280;40076;52.354;4.970;2024-02-23T15:28:04;99085.78;;;8.59;100.00
54172;BME280;40076;52.354;4.970;2024-02-23T15:30:29;99085.69;;;8.55;100.00
54172;BME280;40076;52.354;4.970;2024-02-23T15:32:55;99088.38;;;8.55;100.00
54172;BME280;40076;52.354;4.970;2024-02-23T15:35:20;99097.22;;;8.56;100.00
54172;BME280;40076;52.354;4.970;2024-02-23T15:37:45;99095.25;;;8.52;100.00
54172;BME280;40076;52.354;4.970;2024-02-23T15:40:11;99100.63;;;8.52;100.00
54172;BME280;40076;52.354;4.970;2024-02-23T15:42:36;99100.19;;;8.50;100.00
54172;BME280;40076;52.354;4.970;2024-02-23T15:45:03;99099.06;;;8.51;100.00
54172;BME280;40076;52.354;4.970;2024-02-23T15:47:28;99106.81;;;8.53;100.00
54172;BME280;40076;52.354;4.970;2024-02-23T15:49:54;99103.00;;;8.54;100.00
54172;BME280;40076;52.354;4.970;2024-02-23T15:52:19;99101.03;;;8.55;100.00
54172;BME280;40076;52.354;4.970;2024-02-23T15:54:44;99101.03;;;8.55;100.00
54172;BME280;40076;52.354;4.970;2024-02-23T15:57:10;99104.53;;;8.55;100.00
54172;BME280;40076;52.354;4.970;2024-02-23T15:59:35;99112.59;;;8.55;100.00
54172;BME280;40076;52.354;4.970;2024-02-23T16:02:00;99112.53;;;8.51;100.00
54172;BME280;40076;52.354;4.970;2024-02-23T16:04:27;99104.00;;;8.49;100.00
54172;BME280;40076;52.354;4.970;2024-02-23T16:06:53;99117.47;;;8.49;100.00
54172;BME280;40076;52.354;4.970;2024-02-23T16:09:18;99116.69;;;8.49;100.00
54172;BME280;40076;52.354;4.970;2024-02-23T16:11:45;99107.41;;;8.46;100.00
54172;BME280;40076;52.354;4.970;2024-02-23T16:14:14;99117.03;;;8.47;100.00
54172;BME280;40076;52.354;4.970;2024-02-23T16:16:39;99119.38;;;8.49;100.00
54172;BME280;40076;52.354;4.970;2024-02-23T16:19:07;99121.28;;;8.48;100.00
54172;BME280;40076;52.354;4.970;2024-02-23T16:21:37;99122.06;;;8.49;100.00
54172;BME280;40076;52.354;4.970;2024-02-23T16:24:07;99119.03;;;8.50;100.00
54172;BME280;40076;52.354;4.970;2024-02-23T16:26:35;99113.66;;;8.50;100.00
54172;BME280;40076;52.354;4.970;2024-02-23T16:29:05;99114.78;;;8.49;100.00
54172;BME280;40076;52.354;4.970;2024-02-23T16:31:31;99119.03;;;8.50;100.00
54172;BME280;40076;52.354;4.970;2024-02-23T16:33:56;99116.78;;;8.52;100.00
54172;BME280;40076;52.354;4.970;2024-02-23T16:36:22;99114.09;;;8.52;100.00
54172;BME280;40076;52.354;4.970;2024-02-23T16:38:48;99112.97;;;8.54;100.00
54172;BME280;40076;52.354;4.970;2024-02-23T16:41:14;99114.50;;;8.55;100.00
54172;BME280;40076;52.354;4.970;2024-02-23T16:43:39;99116.84;;;8.56;100.00
54172;BME280;40076;52.354;4.970;2024-02-23T16:46:05;99116.06;;;8.56;100.00
54172;BME280;40076;52.354;4.970;2024-02-23T16:48:30;99111.47;;;8.56;100.00
54172;BME280;40076;52.354;4.970;2024-02-23T16:50:56;99115.28;;;8.55;100.00
54172;BME280;40076;52.354;4.970;2024-02-23T16:53:23;99115.72;;;8.57;100.00
54172;BME280;40076;52.354;4.970;2024-02-23T16:55:52;99119.88;;;8.55;100.00
54172;BME280;40076;52.354;4.970;2024-02-23T16:58:21;99116.44;;;8.54;100.00
54172;BME280;40076;52.354;4.970;2024-02-23T17:00:52;99131.38;;;8.51;100.00
54172;BME280;40076;52.354;4.970;2024-02-23T17:03:20;99124.06;;;8.52;100.00
54172;BME280;40076;52.354;4.970;2024-02-23T17:05:45;99127.91;;;8.51;100.00
54172;BME280;40076;52.354;4.970;2024-02-23T17:08:10;99129.81;;;8.50;100.00
54172;BME280;40076;52.354;4.970;2024-02-23T17:10:36;99125.53;;;8.49;100.00
54172;BME280;40076;52.354;4.970;2024-02-23T17:13:01;99139.72;;;8.46;100.00
54172;BME280;40076;52.354;4.970;2024-02-23T17:15:27;99132.75;;;8.45;100.00
54172;BME280;40076;52.354;4.970;2024-02-23T17:17:53;99141.16;;;8.44;100.00
54172;BME280;40076;52.354;4.970;2024-02-23T17:20:18;99151.16;;;8.43;100.00
54172;BME280;40076;52.354;4.970;2024-02-23T17:22:44;99144.97;;;8.43;100.00
54172;BME280;40076;52.354;4.970;2024-02-23T17:25:09;99155.66;;;8.39;100.00
54172;BME280;40076;52.354;4.970;2024-02-23T17:27:35;99155.22;;;8.37;100.00
54172;BME280;40076;52.354;4.970;2024-02-23T17:30:01;99155.22;;;8.37;100.00
54172;BME280;40076;52.354;4.970;2024-02-23T17:32:26;99155.91;;;8.34;100.00
54172;BME280;40076;52.354;4.970;2024-02-23T17:34:52;99163.53;;;8.32;100.00
54172;BME280;40076;52.354;4.970;2024-02-23T17:37:17;99168.34;;;8.27;100.00
54172;BME280;40076;52.354;4.970;2024-02-23T17:39:43;99170.97;;;8.23;100.00
54172;BME280;40076;52.354;4.970;2024-02-23T17:42:08;99181.94;;;8.18;100.00
54172;BME280;40076;52.354;4.970;2024-02-23T17:44:33;99182.22;;;8.13;100.00
54172;BME280;40076;52.354;4.970;2024-02-23T17:46:59;99184.00;;;8.09;100.00
54172;BME280;40076;52.354;4.970;2024-02-23T17:49:25;99179.00;;;8.07;100.00
54172;BME280;40076;52.354;4.970;2024-02-23T17:51:52;99182.69;;;8.03;100.00
54172;BME280;40076;52.354;4.970;2024-02-23T17:54:18;99192.22;;;8.00;100.00
54172;BME280;40076;52.354;4.970;2024-02-23T17:56:43;99194.34;;;7.95;100.00
54172;BME280;40076;52.354;4.970;2024-02-23T17:59:09;99196.19;;;7.91;100.00